Mariposa, CA

2:47 PM PST on December 19, 2014 (GMT -0800)
Fresno Yosemite International | Change Station
CLOSE
Current Station
Airport
Location: Fresno,
Elevation: 328 ft
Nearby Weather Stations

Elev 328 ft 36.78 °N, 119.72 °W | Updated 54 minutes ago

Overcast
Overcast
56 °F
Feels Like 56 °F
N
7
Wind Variable Wind from South

Today
High -- | Low -- °F
--% Chance of Precip.
Yesterday
High -- | Low -- °F
Precip. -- in
7:09 AM 4:44 PM
Waning Crescent, 6% visible
Pressure 30.18 in
Visibility 10.0 miles
Clouds Few 6000 ft
Scattered Clouds 8000 ft
Overcast 13000 ft
Dew Point 47 °F
Humidity 72%
Rainfall 0.00 in
Snow Depth Not available.
UV 1 out of 12
Pollen 3.10 out of 12
Air Quality Not available.
Flu Activity Not available.
METAR KFAT 192153Z 18006KT 10SM FEW060 SCT080 OVC130 13/08 A3018 RMK AO2 SLP220 CLDS TPG MTNS DSNT E T01330083

More Conditions Fewer Conditions

Pressure 30.18 in
Visibility 10.0 miles
Clouds Few 6000 ft
Scattered Clouds 8000 ft
Overcast 13000 ft
Dew Point 47 °F
Humidity 72%
Rainfall 0.00 in
Snow Depth Not available.
UV 1 out of 12
Pollen 3.10 out of 12
Air Quality Not available.
Flu Activity Not available.
METAR KFAT 192153Z 18006KT 10SM FEW060 SCT080 OVC130 13/08 A3018 RMK AO2 SLP220 CLDS TPG MTNS DSNT E T01330083

More Conditions Fewer Conditions

10-Day Weather Forecast

Almanac

Astronomy

Dec. 19, 2014 Rise Set
Actual Time
Civil Twilight
Nautical Twilight
Astronomical Twilight
Moon
Length of Visible Light
Length of Day
Tomorrow will be .
, % of the Moon is Illuminated

Today's Extremes

State Highs State Lows

Community

WunderPhotos

Upload Photos

1,779,071 photos uploaded!

WunderBlogs® & News

Nearby

Air Quality

  Air Quality AQ Index Pollutant
Not available.

Snow Depth

Station Depth Elevation

Earthquake Activity

City Distance Mag. Time & Date
Minimum magnitude displayed is 2.5.

Coastal Water Temperatures

Place Temperature

Nearby Weather Stations